sensor_id;sensor_type;location;lat;lon;timestamp;P1;durP1;ratioP1;P2;durP2;ratioP2
41141;SDS011;63666;52.284;20.890;2022-11-14T00:00:32;8.10;;;6.00;;
41141;SDS011;63666;52.284;20.890;2022-11-14T00:03:13;7.40;;;5.80;;
41141;SDS011;63666;52.284;20.890;2022-11-14T00:05:48;7.80;;;5.60;;
41141;SDS011;63666;52.284;20.890;2022-11-14T00:08:22;7.70;;;5.90;;
41141;SDS011;63666;52.284;20.890;2022-11-14T00:10:55;8.70;;;6.10;;
41141;SDS011;63666;52.284;20.890;2022-11-14T00:15:58;7.90;;;5.40;;
41141;SDS011;63666;52.284;20.890;2022-11-14T00:18:31;8.30;;;5.60;;
41141;SDS011;63666;52.284;20.890;2022-11-14T00:21:03;8.10;;;5.60;;
41141;SDS011;63666;52.284;20.890;2022-11-14T00:23:36;7.50;;;5.50;;
41141;SDS011;63666;52.284;20.890;2022-11-14T00:26:08;7.90;;;5.40;;
41141;SDS011;63666;52.284;20.890;2022-11-14T00:28:41;7.30;;;5.50;;
41141;SDS011;63666;52.284;20.890;2022-11-14T00:31:15;7.50;;;5.50;;
41141;SDS011;63666;52.284;20.890;2022-11-14T00:33:48;7.90;;;5.40;;
41141;SDS011;63666;52.284;20.890;2022-11-14T00:36:20;7.50;;;5.60;;
41141;SDS011;63666;52.284;20.890;2022-11-14T00:38:54;7.70;;;5.20;;
41141;SDS011;63666;52.284;20.890;2022-11-14T00:41:26;7.30;;;5.10;;
41141;SDS011;63666;52.284;20.890;2022-11-14T00:43:59;7.50;;;5.30;;
41141;SDS011;63666;52.284;20.890;2022-11-14T00:46:31;7.30;;;5.50;;
41141;SDS011;63666;52.284;20.890;2022-11-14T00:49:04;7.90;;;5.40;;
41141;SDS011;63666;52.284;20.890;2022-11-14T00:51:36;7.50;;;5.00;;
41141;SDS011;63666;52.284;20.890;2022-11-14T00:54:09;7.70;;;5.20;;
41141;SDS011;63666;52.284;20.890;2022-11-14T00:56:41;7.20;;;5.10;;
41141;SDS011;63666;52.284;20.890;2022-11-14T00:59:13;6.90;;;4.90;;
41141;SDS011;63666;52.284;20.890;2022-11-14T01:01:45;7.60;;;5.20;;
41141;SDS011;63666;52.284;20.890;2022-11-14T01:04:18;7.50;;;4.50;;
41141;SDS011;63666;52.284;20.890;2022-11-14T01:06:50;6.60;;;4.90;;
41141;SDS011;63666;52.284;20.890;2022-11-14T01:09:22;7.60;;;5.00;;
41141;SDS011;63666;52.284;20.890;2022-11-14T01:11:55;6.90;;;4.60;;
41141;SDS011;63666;52.284;20.890;2022-11-14T01:14:28;6.70;;;4.50;;
41141;SDS011;63666;52.284;20.890;2022-11-14T01:17:00;7.20;;;4.60;;
41141;SDS011;63666;52.284;20.890;2022-11-14T01:19:36;6.60;;;4.70;;
41141;SDS011;63666;52.284;20.890;2022-11-14T01:22:08;7.00;;;4.90;;
41141;SDS011;63666;52.284;20.890;2022-11-14T01:24:40;7.20;;;5.20;;
41141;SDS011;63666;52.284;20.890;2022-11-14T01:27:12;6.70;;;4.30;;
41141;SDS011;63666;52.284;20.890;2022-11-14T01:32:16;6.90;;;4.70;;
41141;SDS011;63666;52.284;20.890;2022-11-14T01:34:49;7.10;;;4.80;;
41141;SDS011;63666;52.284;20.890;2022-11-14T01:37:21;6.90;;;4.80;;
41141;SDS011;63666;52.284;20.890;2022-11-14T01:39:53;6.90;;;4.90;;
41141;SDS011;63666;52.284;20.890;2022-11-14T01:42:26;6.30;;;4.70;;
41141;SDS011;63666;52.284;20.890;2022-11-14T01:44:59;6.30;;;4.40;;
41141;SDS011;63666;52.284;20.890;2022-11-14T01:47:51;6.50;;;4.20;;
41141;SDS011;63666;52.284;20.890;2022-11-14T01:50:23;5.80;;;4.10;;
41141;SDS011;63666;52.284;20.890;2022-11-14T01:52:59;6.80;;;4.70;;
41141;SDS011;63666;52.284;20.890;2022-11-14T01:55:32;6.40;;;4.80;;
41141;SDS011;63666;52.284;20.890;2022-11-14T01:58:04;6.20;;;4.00;;
41141;SDS011;63666;52.284;20.890;2022-11-14T02:00:39;6.60;;;4.40;;
41141;SDS011;63666;52.284;20.890;2022-11-14T02:03:12;6.30;;;4.50;;
41141;SDS011;63666;52.284;20.890;2022-11-14T02:05:45;6.30;;;4.20;;
41141;SDS011;63666;52.284;20.890;2022-11-14T02:08:19;6.40;;;4.40;;
41141;SDS011;63666;52.284;20.890;2022-11-14T02:10:51;6.00;;;4.00;;
41141;SDS011;63666;52.284;20.890;2022-11-14T02:13:23;6.80;;;4.40;;
41141;SDS011;63666;52.284;20.890;2022-11-14T02:15:58;6.10;;;4.20;;
41141;SDS011;63666;52.284;20.890;2022-11-14T02:18:30;6.00;;;3.80;;
41141;SDS011;63666;52.284;20.890;2022-11-14T02:21:02;6.40;;;4.30;;
41141;SDS011;63666;52.284;20.890;2022-11-14T02:23:36;6.20;;;4.30;;
41141;SDS011;63666;52.284;20.890;2022-11-14T02:26:10;6.10;;;4.40;;
41141;SDS011;63666;52.284;20.890;2022-11-14T02:28:45;6.10;;;4.10;;
41141;SDS011;63666;52.284;20.890;2022-11-14T02:31:19;6.10;;;4.10;;
41141;SDS011;63666;52.284;20.890;2022-11-14T02:33:51;6.60;;;4.20;;
41141;SDS011;63666;52.284;20.890;2022-11-14T02:36:23;6.20;;;3.60;;
41141;SDS011;63666;52.284;20.890;2022-11-14T02:38:55;6.10;;;4.10;;
41141;SDS011;63666;52.284;20.890;2022-11-14T02:41:28;6.20;;;4.00;;
41141;SDS011;63666;52.284;20.890;2022-11-14T02:44:00;6.20;;;4.10;;
41141;SDS011;63666;52.284;20.890;2022-11-14T02:46:33;6.00;;;3.80;;
41141;SDS011;63666;52.284;20.890;2022-11-14T02:49:05;6.70;;;4.40;;
41141;SDS011;63666;52.284;20.890;2022-11-14T02:51:37;6.10;;;4.10;;
41141;SDS011;63666;52.284;20.890;2022-11-14T02:54:10;5.90;;;4.00;;
41141;SDS011;63666;52.284;20.890;2022-11-14T02:56:44;6.40;;;4.10;;
41141;SDS011;63666;52.284;20.890;2022-11-14T02:59:17;6.00;;;4.00;;
41141;SDS011;63666;52.284;20.890;2022-11-14T03:01:50;6.30;;;4.50;;
41141;SDS011;63666;52.284;20.890;2022-11-14T03:04:23;6.30;;;4.10;;
41141;SDS011;63666;52.284;20.890;2022-11-14T03:06:59;6.00;;;4.00;;
41141;SDS011;63666;52.284;20.890;2022-11-14T03:09:31;6.00;;;4.20;;
41141;SDS011;63666;52.284;20.890;2022-11-14T03:12:04;6.50;;;4.30;;
41141;SDS011;63666;52.284;20.890;2022-11-14T03:14:41;6.90;;;4.70;;
41141;SDS011;63666;52.284;20.890;2022-11-14T03:17:14;6.20;;;4.10;;
41141;SDS011;63666;52.284;20.890;2022-11-14T03:19:46;6.60;;;4.40;;
41141;SDS011;63666;52.284;20.890;2022-11-14T03:22:18;6.20;;;4.30;;
41141;SDS011;63666;52.284;20.890;2022-11-14T03:24:53;6.50;;;4.50;;
41141;SDS011;63666;52.284;20.890;2022-11-14T03:27:25;6.60;;;4.30;;
41141;SDS011;63666;52.284;20.890;2022-11-14T03:29:57;6.20;;;4.20;;
41141;SDS011;63666;52.284;20.890;2022-11-14T03:32:30;6.70;;;4.40;;
41141;SDS011;63666;52.284;20.890;2022-11-14T03:35:05;6.60;;;4.20;;
41141;SDS011;63666;52.284;20.890;2022-11-14T03:37:38;6.80;;;4.80;;
41141;SDS011;63666;52.284;20.890;2022-11-14T03:40:12;6.30;;;4.30;;
41141;SDS011;63666;52.284;20.890;2022-11-14T03:42:45;6.90;;;4.70;;
41141;SDS011;63666;52.284;20.890;2022-11-14T03:45:18;6.30;;;4.40;;
41141;SDS011;63666;52.284;20.890;2022-11-14T03:47:50;6.80;;;4.30;;
41141;SDS011;63666;52.284;20.890;2022-11-14T03:50:25;5.80;;;4.30;;
41141;SDS011;63666;52.284;20.890;2022-11-14T03:52:58;6.40;;;4.30;;
41141;SDS011;63666;52.284;20.890;2022-11-14T03:55:32;7.10;;;4.50;;
41141;SDS011;63666;52.284;20.890;2022-11-14T03:58:05;6.60;;;4.30;;
41141;SDS011;63666;52.284;20.890;2022-11-14T04:00:37;6.60;;;4.50;;
41141;SDS011;63666;52.284;20.890;2022-11-14T04:03:12;6.80;;;4.30;;
41141;SDS011;63666;52.284;20.890;2022-11-14T04:05:45;6.40;;;4.40;;
41141;SDS011;63666;52.284;20.890;2022-11-14T04:08:20;6.70;;;4.50;;
41141;SDS011;63666;52.284;20.890;2022-11-14T04:10:52;6.50;;;4.20;;
41141;SDS011;63666;52.284;20.890;2022-11-14T04:13:24;5.90;;;4.10;;
41141;SDS011;63666;52.284;20.890;2022-11-14T04:15:57;6.30;;;4.50;;
41141;SDS011;63666;52.284;20.890;2022-11-14T04:18:30;6.30;;;3.90;;
41141;SDS011;63666;52.284;20.890;2022-11-14T04:21:03;6.70;;;4.30;;
41141;SDS011;63666;52.284;20.890;2022-11-14T04:23:35;6.30;;;4.40;;
41141;SDS011;63666;52.284;20.890;2022-11-14T04:26:07;5.90;;;4.10;;
41141;SDS011;63666;52.284;20.890;2022-11-14T04:28:40;6.20;;;4.30;;
41141;SDS011;63666;52.284;20.890;2022-11-14T04:31:12;6.70;;;4.60;;
41141;SDS011;63666;52.284;20.890;2022-11-14T04:33:45;6.10;;;4.10;;
41141;SDS011;63666;52.284;20.890;2022-11-14T04:36:21;6.50;;;4.50;;
41141;SDS011;63666;52.284;20.890;2022-11-14T04:38:53;6.00;;;4.10;;
41141;SDS011;63666;52.284;20.890;2022-11-14T04:41:25;6.20;;;3.90;;
41141;SDS011;63666;52.284;20.890;2022-11-14T04:46:30;6.40;;;4.20;;
41141;SDS011;63666;52.284;20.890;2022-11-14T04:49:04;6.20;;;4.10;;
41141;SDS011;63666;52.284;20.890;2022-11-14T04:51:37;5.90;;;3.80;;
41141;SDS011;63666;52.284;20.890;2022-11-14T04:54:09;6.40;;;4.40;;
41141;SDS011;63666;52.284;20.890;2022-11-14T04:56:44;6.40;;;3.90;;
41141;SDS011;63666;52.284;20.890;2022-11-14T04:59:18;5.80;;;4.00;;
41141;SDS011;63666;52.284;20.890;2022-11-14T05:01:50;6.60;;;4.00;;
41141;SDS011;63666;52.284;20.890;2022-11-14T05:04:23;5.90;;;4.00;;
41141;SDS011;63666;52.284;20.890;2022-11-14T05:06:55;6.30;;;4.50;;
41141;SDS011;63666;52.284;20.890;2022-11-14T05:09:27;5.80;;;3.90;;
41141;SDS011;63666;52.284;20.890;2022-11-14T05:12:00;6.30;;;3.90;;
41141;SDS011;63666;52.284;20.890;2022-11-14T05:14:32;6.20;;;4.10;;
41141;SDS011;63666;52.284;20.890;2022-11-14T05:17:04;6.10;;;4.00;;
41141;SDS011;63666;52.284;20.890;2022-11-14T05:19:37;6.10;;;3.80;;
41141;SDS011;63666;52.284;20.890;2022-11-14T05:22:11;5.80;;;3.60;;
41141;SDS011;63666;52.284;20.890;2022-11-14T05:24:44;6.20;;;4.10;;
41141;SDS011;63666;52.284;20.890;2022-11-14T05:27:16;5.90;;;3.90;;
41141;SDS011;63666;52.284;20.890;2022-11-14T05:29:48;5.70;;;3.40;;
41141;SDS011;63666;52.284;20.890;2022-11-14T05:32:20;5.40;;;3.50;;
41141;SDS011;63666;52.284;20.890;2022-11-14T05:34:53;5.40;;;3.40;;
41141;SDS011;63666;52.284;20.890;2022-11-14T05:37:25;5.70;;;3.90;;
41141;SDS011;63666;52.284;20.890;2022-11-14T05:39:57;5.40;;;3.40;;
41141;SDS011;63666;52.284;20.890;2022-11-14T05:42:29;5.80;;;3.60;;
41141;SDS011;63666;52.284;20.890;2022-11-14T05:45:02;8.10;;;3.90;;
41141;SDS011;63666;52.284;20.890;2022-11-14T05:47:37;5.40;;;3.70;;
41141;SDS011;63666;52.284;20.890;2022-11-14T05:50:10;6.10;;;3.90;;
41141;SDS011;63666;52.284;20.890;2022-11-14T05:52:44;6.00;;;3.90;;
41141;SDS011;63666;52.284;20.890;2022-11-14T05:55:19;5.80;;;4.20;;
41141;SDS011;63666;52.284;20.890;2022-11-14T05:57:51;6.00;;;3.70;;
41141;SDS011;63666;52.284;20.890;2022-11-14T06:00:23;6.80;;;4.10;;
41141;SDS011;63666;52.284;20.890;2022-11-14T06:02:56;7.00;;;4.00;;
41141;SDS011;63666;52.284;20.890;2022-11-14T06:05:28;6.00;;;3.70;;
41141;SDS011;63666;52.284;20.890;2022-11-14T06:08:01;6.00;;;3.70;;
41141;SDS011;63666;52.284;20.890;2022-11-14T06:10:34;5.70;;;3.60;;
41141;SDS011;63666;52.284;20.890;2022-11-14T06:13:07;6.50;;;3.80;;
41141;SDS011;63666;52.284;20.890;2022-11-14T06:15:39;6.80;;;4.00;;
41141;SDS011;63666;52.284;20.890;2022-11-14T06:18:14;6.30;;;3.40;;
41141;SDS011;63666;52.284;20.890;2022-11-14T06:20:49;6.00;;;3.60;;
41141;SDS011;63666;52.284;20.890;2022-11-14T06:23:21;6.20;;;3.70;;
41141;SDS011;63666;52.284;20.890;2022-11-14T06:25:59;5.90;;;3.50;;
41141;SDS011;63666;52.284;20.890;2022-11-14T06:28:33;6.60;;;3.50;;
41141;SDS011;63666;52.284;20.890;2022-11-14T06:31:06;5.20;;;3.20;;
41141;SDS011;63666;52.284;20.890;2022-11-14T06:33:38;5.70;;;3.30;;
41141;SDS011;63666;52.284;20.890;2022-11-14T06:36:12;6.20;;;3.50;;
41141;SDS011;63666;52.284;20.890;2022-11-14T06:38:46;6.00;;;3.30;;
41141;SDS011;63666;52.284;20.890;2022-11-14T06:41:20;5.90;;;3.60;;
41141;SDS011;63666;52.284;20.890;2022-11-14T06:43:53;6.00;;;3.50;;
41141;SDS011;63666;52.284;20.890;2022-11-14T06:46:25;6.20;;;3.50;;
41141;SDS011;63666;52.284;20.890;2022-11-14T06:48:58;5.60;;;3.10;;
41141;SDS011;63666;52.284;20.890;2022-11-14T06:51:30;5.20;;;3.30;;
41141;SDS011;63666;52.284;20.890;2022-11-14T06:54:02;5.40;;;3.10;;
41141;SDS011;63666;52.284;20.890;2022-11-14T06:56:41;6.10;;;3.20;;
41141;SDS011;63666;52.284;20.890;2022-11-14T06:59:13;5.80;;;3.10;;
41141;SDS011;63666;52.284;20.890;2022-11-14T07:01:48;5.60;;;2.90;;
41141;SDS011;63666;52.284;20.890;2022-11-14T07:04:20;5.00;;;2.90;;
41141;SDS011;63666;52.284;20.890;2022-11-14T07:06:52;5.70;;;3.10;;
41141;SDS011;63666;52.284;20.890;2022-11-14T07:09:25;5.00;;;3.20;;
41141;SDS011;63666;52.284;20.890;2022-11-14T07:11:57;6.20;;;3.10;;
41141;SDS011;63666;52.284;20.890;2022-11-14T07:14:30;5.80;;;3.20;;
41141;SDS011;63666;52.284;20.890;2022-11-14T07:17:02;5.30;;;2.70;;
41141;SDS011;63666;52.284;20.890;2022-11-14T07:19:34;4.70;;;3.00;;
41141;SDS011;63666;52.284;20.890;2022-11-14T07:22:09;5.50;;;3.10;;
41141;SDS011;63666;52.284;20.890;2022-11-14T07:24:43;5.30;;;3.10;;
41141;SDS011;63666;52.284;20.890;2022-11-14T07:27:18;5.40;;;3.00;;
41141;SDS011;63666;52.284;20.890;2022-11-14T07:29:50;5.30;;;2.90;;
41141;SDS011;63666;52.284;20.890;2022-11-14T07:32:22;5.40;;;3.00;;
41141;SDS011;63666;52.284;20.890;2022-11-14T07:34:54;5.00;;;2.90;;
41141;SDS011;63666;52.284;20.890;2022-11-14T07:37:27;4.90;;;2.80;;
41141;SDS011;63666;52.284;20.890;2022-11-14T07:39:59;5.20;;;3.10;;
41141;SDS011;63666;52.284;20.890;2022-11-14T07:42:34;5.50;;;2.90;;
41141;SDS011;63666;52.284;20.890;2022-11-14T07:45:09;4.90;;;2.90;;
41141;SDS011;63666;52.284;20.890;2022-11-14T07:47:42;5.20;;;3.00;;
41141;SDS011;63666;52.284;20.890;2022-11-14T07:50:14;5.00;;;3.10;;
41141;SDS011;63666;52.284;20.890;2022-11-14T07:52:52;5.60;;;3.00;;
41141;SDS011;63666;52.284;20.890;2022-11-14T07:55:25;5.30;;;3.10;;
41141;SDS011;63666;52.284;20.890;2022-11-14T07:57:59;5.10;;;2.90;;
41141;SDS011;63666;52.284;20.890;2022-11-14T08:00:32;5.20;;;2.70;;
41141;SDS011;63666;52.284;20.890;2022-11-14T08:05:40;4.90;;;3.00;;
41141;SDS011;63666;52.284;20.890;2022-11-14T08:08:12;6.30;;;2.90;;
41141;SDS011;63666;52.284;20.890;2022-11-14T08:10:45;4.90;;;3.10;;
41141;SDS011;63666;52.284;20.890;2022-11-14T08:13:17;5.60;;;3.20;;
41141;SDS011;63666;52.284;20.890;2022-11-14T08:15:49;7.10;;;2.80;;
41141;SDS011;63666;52.284;20.890;2022-11-14T08:18:23;6.00;;;3.20;;
41141;SDS011;63666;52.284;20.890;2022-11-14T08:20:55;8.70;;;3.20;;
41141;SDS011;63666;52.284;20.890;2022-11-14T08:23:28;6.70;;;3.10;;
41141;SDS011;63666;52.284;20.890;2022-11-14T08:26:00;5.60;;;2.90;;
41141;SDS011;63666;52.284;20.890;2022-11-14T08:28:32;5.30;;;2.80;;
41141;SDS011;63666;52.284;20.890;2022-11-14T08:31:05;5.50;;;2.70;;
41141;SDS011;63666;52.284;20.890;2022-11-14T08:33:38;8.30;;;3.00;;
41141;SDS011;63666;52.284;20.890;2022-11-14T08:36:11;4.50;;;2.50;;
41141;SDS011;63666;52.284;20.890;2022-11-14T08:41:15;4.70;;;2.80;;
41141;SDS011;63666;52.284;20.890;2022-11-14T08:43:49;4.90;;;2.70;;
41141;SDS011;63666;52.284;20.890;2022-11-14T08:46:22;5.00;;;2.90;;
41141;SDS011;63666;52.284;20.890;2022-11-14T08:48:54;5.50;;;3.00;;
41141;SDS011;63666;52.284;20.890;2022-11-14T08:51:27;5.10;;;2.80;;
41141;SDS011;63666;52.284;20.890;2022-11-14T08:54:00;5.40;;;2.60;;
41141;SDS011;63666;52.284;20.890;2022-11-14T08:56:33;5.10;;;2.60;;
41141;SDS011;63666;52.284;20.890;2022-11-14T08:59:05;5.30;;;2.90;;
41141;SDS011;63666;52.284;20.890;2022-11-14T09:01:38;4.60;;;2.50;;
41141;SDS011;63666;52.284;20.890;2022-11-14T09:04:11;4.90;;;2.60;;
41141;SDS011;63666;52.284;20.890;2022-11-14T09:06:43;4.60;;;2.60;;
41141;SDS011;63666;52.284;20.890;2022-11-14T09:09:15;4.70;;;2.30;;
41141;SDS011;63666;52.284;20.890;2022-11-14T09:11:47;4.30;;;2.60;;
41141;SDS011;63666;52.284;20.890;2022-11-14T09:14:22;5.10;;;2.70;;
41141;SDS011;63666;52.284;20.890;2022-11-14T09:16:55;4.30;;;2.50;;
41141;SDS011;63666;52.284;20.890;2022-11-14T09:19:27;4.80;;;2.50;;
41141;SDS011;63666;52.284;20.890;2022-11-14T09:22:00;4.40;;;2.40;;
41141;SDS011;63666;52.284;20.890;2022-11-14T09:24:32;4.30;;;2.50;;
41141;SDS011;63666;52.284;20.890;2022-11-14T09:27:05;4.10;;;2.30;;
41141;SDS011;63666;52.284;20.890;2022-11-14T09:29:37;4.20;;;2.40;;
41141;SDS011;63666;52.284;20.890;2022-11-14T09:32:10;4.20;;;2.30;;
41141;SDS011;63666;52.284;20.890;2022-11-14T09:34:42;4.40;;;2.70;;
41141;SDS011;63666;52.284;20.890;2022-11-14T09:37:16;4.70;;;2.50;;
41141;SDS011;63666;52.284;20.890;2022-11-14T09:39:49;3.90;;;2.10;;
41141;SDS011;63666;52.284;20.890;2022-11-14T09:42:33;4.40;;;2.40;;
41141;SDS011;63666;52.284;20.890;2022-11-14T09:45:15;4.30;;;2.60;;
41141;SDS011;63666;52.284;20.890;2022-11-14T09:47:52;4.80;;;2.60;;
41141;SDS011;63666;52.284;20.890;2022-11-14T09:50:33;4.40;;;2.30;;
41141;SDS011;63666;52.284;20.890;2022-11-14T09:53:16;4.30;;;2.50;;
41141;SDS011;63666;52.284;20.890;2022-11-14T09:55:55;5.60;;;2.60;;
41141;SDS011;63666;52.284;20.890;2022-11-14T09:58:28;4.30;;;2.60;;
41141;SDS011;63666;52.284;20.890;2022-11-14T10:01:08;4.90;;;2.40;;
41141;SDS011;63666;52.284;20.890;2022-11-14T10:03:52;4.50;;;2.60;;
41141;SDS011;63666;52.284;20.890;2022-11-14T10:06:32;4.00;;;2.50;;
41141;SDS011;63666;52.284;20.890;2022-11-14T10:09:39;4.90;;;2.40;;
41141;SDS011;63666;52.284;20.890;2022-11-14T10:12:24;4.90;;;2.60;;
41141;SDS011;63666;52.284;20.890;2022-11-14T10:15:10;4.70;;;2.60;;
41141;SDS011;63666;52.284;20.890;2022-11-14T10:17:58;4.40;;;2.50;;
41141;SDS011;63666;52.284;20.890;2022-11-14T10:20:41;6.80;;;3.30;;
41141;SDS011;63666;52.284;20.890;2022-11-14T10:23:27;5.10;;;2.60;;
41141;SDS011;63666;52.284;20.890;2022-11-14T10:26:13;4.50;;;2.30;;
41141;SDS011;63666;52.284;20.890;2022-11-14T10:34:55;4.50;;;2.40;;
41141;SDS011;63666;52.284;20.890;2022-11-14T10:37:39;5.00;;;2.50;;
41141;SDS011;63666;52.284;20.890;2022-11-14T10:40:18;6.20;;;2.70;;
41141;SDS011;63666;52.284;20.890;2022-11-14T10:42:59;4.20;;;2.20;;
41141;SDS011;63666;52.284;20.890;2022-11-14T10:45:40;4.20;;;2.30;;
41141;SDS011;63666;52.284;20.890;2022-11-14T10:48:27;3.80;;;2.20;;
41141;SDS011;63666;52.284;20.890;2022-11-14T10:51:05;4.40;;;2.40;;
41141;SDS011;63666;52.284;20.890;2022-11-14T10:53:54;4.30;;;2.40;;
41141;SDS011;63666;52.284;20.890;2022-11-14T10:56:28;4.50;;;2.50;;
41141;SDS011;63666;52.284;20.890;2022-11-14T10:59:01;4.80;;;2.10;;
41141;SDS011;63666;52.284;20.890;2022-11-14T11:01:40;4.10;;;2.40;;
41141;SDS011;63666;52.284;20.890;2022-11-14T11:04:27;3.80;;;2.30;;
41141;SDS011;63666;52.284;20.890;2022-11-14T11:07:19;4.60;;;2.30;;
41141;SDS011;63666;52.284;20.890;2022-11-14T11:10:23;4.30;;;2.30;;
41141;SDS011;63666;52.284;20.890;2022-11-14T11:13:29;4.20;;;2.40;;
41141;SDS011;63666;52.284;20.890;2022-11-14T11:16:08;4.50;;;2.40;;
41141;SDS011;63666;52.284;20.890;2022-11-14T11:18:42;4.20;;;2.30;;
41141;SDS011;63666;52.284;20.890;2022-11-14T11:21:16;4.00;;;2.10;;
41141;SDS011;63666;52.284;20.890;2022-11-14T11:23:55;4.10;;;1.90;;
41141;SDS011;63666;52.284;20.890;2022-11-14T11:26:32;4.20;;;2.20;;
41141;SDS011;63666;52.284;20.890;2022-11-14T11:29:14;4.80;;;2.40;;
41141;SDS011;63666;52.284;20.890;2022-11-14T11:31:53;4.40;;;2.50;;
41141;SDS011;63666;52.284;20.890;2022-11-14T11:34:29;4.60;;;2.40;;
41141;SDS011;63666;52.284;20.890;2022-11-14T11:37:06;4.30;;;2.40;;
41141;SDS011;63666;52.284;20.890;2022-11-14T11:39:48;3.90;;;2.40;;
41141;SDS011;63666;52.284;20.890;2022-11-14T11:42:27;3.80;;;2.20;;
41141;SDS011;63666;52.284;20.890;2022-11-14T11:45:08;4.60;;;2.60;;
41141;SDS011;63666;52.284;20.890;2022-11-14T11:47:50;4.80;;;2.70;;
41141;SDS011;63666;52.284;20.890;2022-11-14T11:50:26;4.20;;;2.30;;
41141;SDS011;63666;52.284;20.890;2022-11-14T11:53:06;4.50;;;2.40;;
41141;SDS011;63666;52.284;20.890;2022-11-14T11:55:48;4.50;;;2.60;;
41141;SDS011;63666;52.284;20.890;2022-11-14T11:58:25;4.20;;;2.50;;
41141;SDS011;63666;52.284;20.890;2022-11-14T12:01:01;4.80;;;2.50;;
41141;SDS011;63666;52.284;20.890;2022-11-14T12:03:37;4.70;;;2.30;;
41141;SDS011;63666;52.284;20.890;2022-11-14T12:06:16;5.30;;;2.70;;
41141;SDS011;63666;52.284;20.890;2022-11-14T12:09:05;4.50;;;2.40;;
41141;SDS011;63666;52.284;20.890;2022-11-14T12:11:41;4.30;;;2.30;;
41141;SDS011;63666;52.284;20.890;2022-11-14T12:14:43;4.80;;;2.50;;
41141;SDS011;63666;52.284;20.890;2022-11-14T12:17:55;4.40;;;2.50;;
41141;SDS011;63666;52.284;20.890;2022-11-14T12:27:25;4.30;;;2.50;;
41141;SDS011;63666;52.284;20.890;2022-11-14T12:30:10;4.10;;;2.40;;
41141;SDS011;63666;52.284;20.890;2022-11-14T12:32:48;4.40;;;2.40;;
41141;SDS011;63666;52.284;20.890;2022-11-14T12:35:25;4.10;;;2.40;;
41141;SDS011;63666;52.284;20.890;2022-11-14T12:38:00;4.20;;;2.50;;
41141;SDS011;63666;52.284;20.890;2022-11-14T12:40:40;4.30;;;2.40;;
41141;SDS011;63666;52.284;20.890;2022-11-14T12:43:33;4.30;;;2.40;;
41141;SDS011;63666;52.284;20.890;2022-11-14T12:46:15;4.60;;;2.60;;
41141;SDS011;63666;52.284;20.890;2022-11-14T12:48:47;4.60;;;2.60;;
41141;SDS011;63666;52.284;20.890;2022-11-14T12:51:48;4.30;;;2.60;;
41141;SDS011;63666;52.284;20.890;2022-11-14T12:54:44;4.70;;;2.50;;
41141;SDS011;63666;52.284;20.890;2022-11-14T12:57:24;4.90;;;2.60;;
41141;SDS011;63666;52.284;20.890;2022-11-14T13:00:17;4.40;;;2.70;;
41141;SDS011;63666;52.284;20.890;2022-11-14T13:03:15;4.50;;;2.60;;
41141;SDS011;63666;52.284;20.890;2022-11-14T13:05:58;4.30;;;2.80;;
41141;SDS011;63666;52.284;20.890;2022-11-14T13:08:53;5.40;;;3.00;;
41141;SDS011;63666;52.284;20.890;2022-11-14T13:14:27;4.70;;;2.80;;
41141;SDS011;63666;52.284;20.890;2022-11-14T13:20:29;5.30;;;3.20;;
41141;SDS011;63666;52.284;20.890;2022-11-14T13:23:57;4.70;;;3.00;;
41141;SDS011;63666;52.284;20.890;2022-11-14T13:26:54;5.50;;;3.30;;
41141;SDS011;63666;52.284;20.890;2022-11-14T13:29:57;5.20;;;3.10;;
41141;SDS011;63666;52.284;20.890;2022-11-14T13:33:03;5.20;;;3.10;;
41141;SDS011;63666;52.284;20.890;2022-11-14T13:35:53;5.20;;;3.20;;
41141;SDS011;63666;52.284;20.890;2022-11-14T13:39:01;5.10;;;3.40;;
41141;SDS011;63666;52.284;20.890;2022-11-14T13:42:06;5.40;;;3.40;;
41141;SDS011;63666;52.284;20.890;2022-11-14T13:45:30;6.00;;;3.60;;
41141;SDS011;63666;52.284;20.890;2022-11-14T13:48:24;5.50;;;3.40;;
41141;SDS011;63666;52.284;20.890;2022-11-14T13:51:08;6.40;;;3.90;;
41141;SDS011;63666;52.284;20.890;2022-11-14T13:53:43;5.70;;;3.70;;
41141;SDS011;63666;52.284;20.890;2022-11-14T13:56:27;5.30;;;3.20;;
41141;SDS011;63666;52.284;20.890;2022-11-14T13:59:25;6.10;;;3.70;;
41141;SDS011;63666;52.284;20.890;2022-11-14T14:02:21;5.70;;;3.50;;
41141;SDS011;63666;52.284;20.890;2022-11-14T14:05:23;5.50;;;3.40;;
41141;SDS011;63666;52.284;20.890;2022-11-14T14:08:11;6.30;;;3.70;;
41141;SDS011;63666;52.284;20.890;2022-11-14T14:10:58;6.70;;;4.30;;
41141;SDS011;63666;52.284;20.890;2022-11-14T14:13:48;6.20;;;4.20;;
41141;SDS011;63666;52.284;20.890;2022-11-14T14:16:32;6.30;;;4.00;;
41141;SDS011;63666;52.284;20.890;2022-11-14T14:19:10;6.50;;;4.10;;
41141;SDS011;63666;52.284;20.890;2022-11-14T14:21:55;6.60;;;4.30;;
41141;SDS011;63666;52.284;20.890;2022-11-14T14:24:42;6.50;;;4.10;;
41141;SDS011;63666;52.284;20.890;2022-11-14T14:27:25;6.90;;;4.30;;
41141;SDS011;63666;52.284;20.890;2022-11-14T14:30:10;6.40;;;3.90;;
41141;SDS011;63666;52.284;20.890;2022-11-14T14:32:44;6.50;;;4.40;;
41141;SDS011;63666;52.284;20.890;2022-11-14T14:35:35;7.90;;;4.70;;
41141;SDS011;63666;52.284;20.890;2022-11-14T14:38:12;7.20;;;4.50;;
41141;SDS011;63666;52.284;20.890;2022-11-14T14:40:56;6.30;;;4.70;;
41141;SDS011;63666;52.284;20.890;2022-11-14T14:43:32;6.70;;;4.60;;
41141;SDS011;63666;52.284;20.890;2022-11-14T14:46:08;6.80;;;4.60;;
41141;SDS011;63666;52.284;20.890;2022-11-14T14:48:43;6.40;;;4.60;;
41141;SDS011;63666;52.284;20.890;2022-11-14T14:51:30;7.40;;;5.30;;
41141;SDS011;63666;52.284;20.890;2022-11-14T14:54:05;7.00;;;4.80;;
41141;SDS011;63666;52.284;20.890;2022-11-14T14:56:56;6.90;;;4.90;;
41141;SDS011;63666;52.284;20.890;2022-11-14T14:59:30;8.10;;;5.40;;
41141;SDS011;63666;52.284;20.890;2022-11-14T15:02:07;7.30;;;5.40;;
41141;SDS011;63666;52.284;20.890;2022-11-14T15:04:45;7.60;;;5.20;;
41141;SDS011;63666;52.284;20.890;2022-11-14T15:07:22;8.00;;;5.60;;
41141;SDS011;63666;52.284;20.890;2022-11-14T15:09:58;7.80;;;5.60;;
41141;SDS011;63666;52.284;20.890;2022-11-14T15:12:34;7.90;;;5.30;;
41141;SDS011;63666;52.284;20.890;2022-11-14T15:15:12;7.40;;;5.50;;
41141;SDS011;63666;52.284;20.890;2022-11-14T15:17:49;9.10;;;5.90;;
41141;SDS011;63666;52.284;20.890;2022-11-14T15:20:26;7.50;;;5.00;;
41141;SDS011;63666;52.284;20.890;2022-11-14T15:23:19;8.90;;;6.00;;
41141;SDS011;63666;52.284;20.890;2022-11-14T15:26:02;7.70;;;5.70;;
41141;SDS011;63666;52.284;20.890;2022-11-14T15:28:34;8.20;;;6.20;;
41141;SDS011;63666;52.284;20.890;2022-11-14T15:31:11;8.80;;;6.00;;
41141;SDS011;63666;52.284;20.890;2022-11-14T15:34:01;9.10;;;6.10;;
41141;SDS011;63666;52.284;20.890;2022-11-14T15:36:35;8.20;;;6.00;;
41141;SDS011;63666;52.284;20.890;2022-11-14T15:39:22;8.90;;;6.00;;
41141;SDS011;63666;52.284;20.890;2022-11-14T15:42:15;8.70;;;6.00;;
41141;SDS011;63666;52.284;20.890;2022-11-14T15:44:52;8.50;;;6.20;;
41141;SDS011;63666;52.284;20.890;2022-11-14T15:47:27;8.40;;;6.30;;
41141;SDS011;63666;52.284;20.890;2022-11-14T15:50:05;8.00;;;5.60;;
41141;SDS011;63666;52.284;20.890;2022-11-14T15:52:56;7.80;;;5.90;;
41141;SDS011;63666;52.284;20.890;2022-11-14T15:55:31;8.40;;;5.90;;
41141;SDS011;63666;52.284;20.890;2022-11-14T15:58:06;8.00;;;5.90;;
41141;SDS011;63666;52.284;20.890;2022-11-14T16:00:45;8.70;;;6.20;;
41141;SDS011;63666;52.284;20.890;2022-11-14T16:03:20;7.60;;;5.90;;